sensor_id;sensor_type;location;lat;lon;timestamp;P1;durP1;ratioP1;P2;durP2;ratioP2
15035;SDS011;7615;48.574;13.474;2023-04-07T00:01:06;11.60;;;7.43;;
15035;SDS011;7615;48.574;13.474;2023-04-07T00:03:33;12.60;;;7.47;;
15035;SDS011;7615;48.574;13.474;2023-04-07T00:06:02;12.27;;;7.00;;
15035;SDS011;7615;48.574;13.474;2023-04-07T00:08:29;10.87;;;7.73;;
15035;SDS011;7615;48.574;13.474;2023-04-07T00:10:58;12.37;;;7.60;;
15035;SDS011;7615;48.574;13.474;2023-04-07T00:13:25;11.63;;;6.93;;
15035;SDS011;7615;48.574;13.474;2023-04-07T00:15:52;8.77;;;6.53;;
15035;SDS011;7615;48.574;13.474;2023-04-07T00:18:20;9.33;;;6.73;;
15035;SDS011;7615;48.574;13.474;2023-04-07T00:20:47;9.30;;;6.87;;
15035;SDS011;7615;48.574;13.474;2023-04-07T00:23:14;11.30;;;7.00;;
15035;SDS011;7615;48.574;13.474;2023-04-07T00:25:41;11.47;;;7.70;;
15035;SDS011;7615;48.574;13.474;2023-04-07T00:28:10;10.93;;;6.80;;
15035;SDS011;7615;48.574;13.474;2023-04-07T00:30:37;9.57;;;7.07;;
15035;SDS011;7615;48.574;13.474;2023-04-07T00:33:06;11.30;;;7.60;;
15035;SDS011;7615;48.574;13.474;2023-04-07T00:35:33;11.27;;;6.80;;
15035;SDS011;7615;48.574;13.474;2023-04-07T00:38:00;10.03;;;7.13;;
15035;SDS011;7615;48.574;13.474;2023-04-07T00:40:28;15.23;;;7.43;;
15035;SDS011;7615;48.574;13.474;2023-04-07T00:42:55;13.23;;;7.73;;
15035;SDS011;7615;48.574;13.474;2023-04-07T00:45:24;12.30;;;7.23;;
15035;SDS011;7615;48.574;13.474;2023-04-07T00:47:51;11.93;;;7.23;;
15035;SDS011;7615;48.574;13.474;2023-04-07T00:50:19;12.60;;;7.73;;
15035;SDS011;7615;48.574;13.474;2023-04-07T00:52:47;11.90;;;7.37;;
15035;SDS011;7615;48.574;13.474;2023-04-07T00:55:15;10.20;;;7.13;;
15035;SDS011;7615;48.574;13.474;2023-04-07T00:57:43;13.13;;;7.67;;
15035;SDS011;7615;48.574;13.474;2023-04-07T01:00:11;12.93;;;7.80;;
15035;SDS011;7615;48.574;13.474;2023-04-07T01:02:42;11.57;;;7.10;;
15035;SDS011;7615;48.574;13.474;2023-04-07T01:05:14;11.47;;;7.67;;
15035;SDS011;7615;48.574;13.474;2023-04-07T01:07:47;10.00;;;7.33;;
15035;SDS011;7615;48.574;13.474;2023-04-07T01:10:23;11.43;;;7.57;;
15035;SDS011;7615;48.574;13.474;2023-04-07T01:12:57;11.37;;;7.97;;
15035;SDS011;7615;48.574;13.474;2023-04-07T01:15:29;11.30;;;7.30;;
15035;SDS011;7615;48.574;13.474;2023-04-07T01:18:05;12.47;;;7.63;;
15035;SDS011;7615;48.574;13.474;2023-04-07T01:20:35;12.43;;;7.47;;
15035;SDS011;7615;48.574;13.474;2023-04-07T01:23:05;11.30;;;7.40;;
15035;SDS011;7615;48.574;13.474;2023-04-07T01:25:40;11.23;;;7.90;;
15035;SDS011;7615;48.574;13.474;2023-04-07T01:31:28;10.63;;;7.70;;
15035;SDS011;7615;48.574;13.474;2023-04-07T01:33:56;10.60;;;7.40;;
15035;SDS011;7615;48.574;13.474;2023-04-07T01:36:26;12.20;;;8.23;;
15035;SDS011;7615;48.574;13.474;2023-04-07T01:38:54;11.63;;;7.83;;
15035;SDS011;7615;48.574;13.474;2023-04-07T01:41:23;11.77;;;7.33;;
15035;SDS011;7615;48.574;13.474;2023-04-07T01:43:52;12.90;;;8.10;;
15035;SDS011;7615;48.574;13.474;2023-04-07T01:46:20;12.13;;;7.63;;
15035;SDS011;7615;48.574;13.474;2023-04-07T01:48:49;11.80;;;7.90;;
15035;SDS011;7615;48.574;13.474;2023-04-07T01:51:18;11.13;;;7.43;;
15035;SDS011;7615;48.574;13.474;2023-04-07T01:53:47;12.03;;;7.77;;
15035;SDS011;7615;48.574;13.474;2023-04-07T01:56:15;12.73;;;7.33;;
15035;SDS011;7615;48.574;13.474;2023-04-07T01:58:42;12.23;;;7.50;;
15035;SDS011;7615;48.574;13.474;2023-04-07T02:01:09;10.50;;;7.57;;
15035;SDS011;7615;48.574;13.474;2023-04-07T02:03:39;11.90;;;8.23;;
15035;SDS011;7615;48.574;13.474;2023-04-07T02:06:14;12.00;;;8.03;;
15035;SDS011;7615;48.574;13.474;2023-04-07T02:08:46;12.20;;;8.07;;
15035;SDS011;7615;48.574;13.474;2023-04-07T02:11:16;12.87;;;8.47;;
15035;SDS011;7615;48.574;13.474;2023-04-07T02:13:45;10.23;;;7.73;;
15035;SDS011;7615;48.574;13.474;2023-04-07T02:16:13;12.93;;;7.67;;
15035;SDS011;7615;48.574;13.474;2023-04-07T02:18:41;9.00;;;6.83;;
15035;SDS011;7615;48.574;13.474;2023-04-07T02:21:10;11.07;;;8.00;;
15035;SDS011;7615;48.574;13.474;2023-04-07T02:23:41;12.40;;;8.13;;
15035;SDS011;7615;48.574;13.474;2023-04-07T02:26:08;12.83;;;7.80;;
15035;SDS011;7615;48.574;13.474;2023-04-07T02:28:35;11.90;;;7.57;;
15035;SDS011;7615;48.574;13.474;2023-04-07T02:31:03;11.87;;;8.03;;
15035;SDS011;7615;48.574;13.474;2023-04-07T02:33:30;10.37;;;7.23;;
15035;SDS011;7615;48.574;13.474;2023-04-07T02:35:57;11.27;;;7.43;;
15035;SDS011;7615;48.574;13.474;2023-04-07T02:38:25;9.77;;;7.33;;
15035;SDS011;7615;48.574;13.474;2023-04-07T02:40:53;13.37;;;7.93;;
15035;SDS011;7615;48.574;13.474;2023-04-07T02:43:22;11.13;;;7.80;;
15035;SDS011;7615;48.574;13.474;2023-04-07T02:45:50;11.53;;;7.80;;
15035;SDS011;7615;48.574;13.474;2023-04-07T02:48:17;12.07;;;7.80;;
15035;SDS011;7615;48.574;13.474;2023-04-07T02:50:45;13.53;;;7.90;;
15035;SDS011;7615;48.574;13.474;2023-04-07T02:53:12;10.57;;;7.37;;
15035;SDS011;7615;48.574;13.474;2023-04-07T02:55:39;11.67;;;8.33;;
15035;SDS011;7615;48.574;13.474;2023-04-07T02:58:08;11.30;;;7.80;;
15035;SDS011;7615;48.574;13.474;2023-04-07T03:00:35;10.60;;;7.47;;
15035;SDS011;7615;48.574;13.474;2023-04-07T03:03:03;12.73;;;7.47;;
15035;SDS011;7615;48.574;13.474;2023-04-07T03:05:30;12.13;;;8.00;;
15035;SDS011;7615;48.574;13.474;2023-04-07T03:07:57;11.40;;;7.80;;
15035;SDS011;7615;48.574;13.474;2023-04-07T03:10:25;12.03;;;8.00;;
15035;SDS011;7615;48.574;13.474;2023-04-07T03:12:52;12.77;;;7.83;;
15035;SDS011;7615;48.574;13.474;2023-04-07T03:15:20;10.53;;;7.73;;
15035;SDS011;7615;48.574;13.474;2023-04-07T03:17:48;10.33;;;7.87;;
15035;SDS011;7615;48.574;13.474;2023-04-07T03:20:15;10.70;;;7.60;;
15035;SDS011;7615;48.574;13.474;2023-04-07T03:22:42;10.90;;;7.90;;
15035;SDS011;7615;48.574;13.474;2023-04-07T03:25:11;15.77;;;9.07;;
15035;SDS011;7615;48.574;13.474;2023-04-07T03:27:38;13.57;;;8.17;;
15035;SDS011;7615;48.574;13.474;2023-04-07T03:30:06;11.93;;;7.80;;
15035;SDS011;7615;48.574;13.474;2023-04-07T03:32:35;11.37;;;7.77;;
15035;SDS011;7615;48.574;13.474;2023-04-07T03:35:03;13.30;;;8.07;;
15035;SDS011;7615;48.574;13.474;2023-04-07T03:37:30;13.27;;;7.77;;
15035;SDS011;7615;48.574;13.474;2023-04-07T03:39:57;10.50;;;7.97;;
15035;SDS011;7615;48.574;13.474;2023-04-07T03:42:24;11.87;;;7.97;;
15035;SDS011;7615;48.574;13.474;2023-04-07T03:44:53;11.60;;;7.73;;
15035;SDS011;7615;48.574;13.474;2023-04-07T03:47:20;13.07;;;8.57;;
15035;SDS011;7615;48.574;13.474;2023-04-07T03:49:49;10.10;;;7.33;;
15035;SDS011;7615;48.574;13.474;2023-04-07T03:52:17;12.37;;;7.60;;
15035;SDS011;7615;48.574;13.474;2023-04-07T03:54:44;10.10;;;7.43;;
15035;SDS011;7615;48.574;13.474;2023-04-07T03:57:11;11.73;;;8.37;;
15035;SDS011;7615;48.574;13.474;2023-04-07T03:59:38;10.67;;;7.90;;
15035;SDS011;7615;48.574;13.474;2023-04-07T04:02:06;17.30;;;8.50;;
15035;SDS011;7615;48.574;13.474;2023-04-07T04:04:33;12.63;;;8.50;;
15035;SDS011;7615;48.574;13.474;2023-04-07T04:07:01;11.67;;;7.87;;
15035;SDS011;7615;48.574;13.474;2023-04-07T04:09:29;12.37;;;8.30;;
15035;SDS011;7615;48.574;13.474;2023-04-07T04:11:56;14.93;;;7.83;;
15035;SDS011;7615;48.574;13.474;2023-04-07T04:14:23;12.07;;;8.30;;
15035;SDS011;7615;48.574;13.474;2023-04-07T04:16:50;12.57;;;8.33;;
15035;SDS011;7615;48.574;13.474;2023-04-07T04:19:19;10.70;;;8.10;;
15035;SDS011;7615;48.574;13.474;2023-04-07T04:21:46;14.57;;;8.80;;
15035;SDS011;7615;48.574;13.474;2023-04-07T04:24:15;11.37;;;8.07;;
15035;SDS011;7615;48.574;13.474;2023-04-07T04:26:42;13.57;;;8.17;;
15035;SDS011;7615;48.574;13.474;2023-04-07T04:29:09;13.40;;;8.47;;
15035;SDS011;7615;48.574;13.474;2023-04-07T04:31:36;13.27;;;7.90;;
15035;SDS011;7615;48.574;13.474;2023-04-07T04:34:03;14.87;;;8.93;;
15035;SDS011;7615;48.574;13.474;2023-04-07T04:36:30;12.17;;;8.03;;
15035;SDS011;7615;48.574;13.474;2023-04-07T04:38:58;12.40;;;8.67;;
15035;SDS011;7615;48.574;13.474;2023-04-07T04:41:27;12.87;;;8.17;;
15035;SDS011;7615;48.574;13.474;2023-04-07T04:43:54;12.23;;;7.37;;
15035;SDS011;7615;48.574;13.474;2023-04-07T04:46:21;11.37;;;8.37;;
15035;SDS011;7615;48.574;13.474;2023-04-07T04:48:48;12.73;;;8.23;;
15035;SDS011;7615;48.574;13.474;2023-04-07T04:51:16;12.30;;;8.07;;
15035;SDS011;7615;48.574;13.474;2023-04-07T04:53:44;12.60;;;8.23;;
15035;SDS011;7615;48.574;13.474;2023-04-07T04:56:11;12.63;;;8.10;;
15035;SDS011;7615;48.574;13.474;2023-04-07T04:58:40;12.60;;;8.33;;
15035;SDS011;7615;48.574;13.474;2023-04-07T05:01:10;16.40;;;8.37;;
15035;SDS011;7615;48.574;13.474;2023-04-07T05:03:37;11.77;;;8.47;;
15035;SDS011;7615;48.574;13.474;2023-04-07T05:06:05;13.53;;;8.30;;
15035;SDS011;7615;48.574;13.474;2023-04-07T05:08:32;13.67;;;8.83;;
15035;SDS011;7615;48.574;13.474;2023-04-07T05:11:00;12.43;;;7.90;;
15035;SDS011;7615;48.574;13.474;2023-04-07T05:13:27;12.77;;;8.03;;
15035;SDS011;7615;48.574;13.474;2023-04-07T05:15:57;12.03;;;8.10;;
15035;SDS011;7615;48.574;13.474;2023-04-07T05:18:25;13.13;;;8.63;;
15035;SDS011;7615;48.574;13.474;2023-04-07T05:20:52;12.73;;;8.03;;
15035;SDS011;7615;48.574;13.474;2023-04-07T05:23:19;13.43;;;8.30;;
15035;SDS011;7615;48.574;13.474;2023-04-07T05:25:46;13.00;;;8.63;;
15035;SDS011;7615;48.574;13.474;2023-04-07T05:28:14;12.23;;;8.63;;
15035;SDS011;7615;48.574;13.474;2023-04-07T05:30:44;13.20;;;8.87;;
15035;SDS011;7615;48.574;13.474;2023-04-07T05:33:13;12.23;;;7.80;;
15035;SDS011;7615;48.574;13.474;2023-04-07T05:35:42;12.03;;;8.73;;
15035;SDS011;7615;48.574;13.474;2023-04-07T05:38:10;12.17;;;7.83;;
15035;SDS011;7615;48.574;13.474;2023-04-07T05:40:38;12.23;;;8.57;;
15035;SDS011;7615;48.574;13.474;2023-04-07T05:43:06;11.20;;;8.27;;
15035;SDS011;7615;48.574;13.474;2023-04-07T05:45:34;12.33;;;7.97;;
15035;SDS011;7615;48.574;13.474;2023-04-07T05:48:02;13.57;;;8.90;;
15035;SDS011;7615;48.574;13.474;2023-04-07T05:50:31;13.17;;;8.23;;
15035;SDS011;7615;48.574;13.474;2023-04-07T05:53:00;14.83;;;9.00;;
15035;SDS011;7615;48.574;13.474;2023-04-07T05:55:28;12.97;;;9.07;;
15035;SDS011;7615;48.574;13.474;2023-04-07T05:57:58;14.00;;;8.40;;
15035;SDS011;7615;48.574;13.474;2023-04-07T06:00:26;13.67;;;8.80;;
15035;SDS011;7615;48.574;13.474;2023-04-07T06:02:54;13.93;;;8.73;;
15035;SDS011;7615;48.574;13.474;2023-04-07T06:05:22;13.20;;;8.33;;
15035;SDS011;7615;48.574;13.474;2023-04-07T06:07:53;11.63;;;8.20;;
15035;SDS011;7615;48.574;13.474;2023-04-07T06:10:22;13.10;;;8.50;;
15035;SDS011;7615;48.574;13.474;2023-04-07T06:12:50;12.40;;;8.83;;
15035;SDS011;7615;48.574;13.474;2023-04-07T06:15:18;12.97;;;9.03;;
15035;SDS011;7615;48.574;13.474;2023-04-07T06:17:47;11.70;;;7.67;;
15035;SDS011;7615;48.574;13.474;2023-04-07T06:20:16;14.30;;;9.13;;
15035;SDS011;7615;48.574;13.474;2023-04-07T06:22:44;12.93;;;8.57;;
15035;SDS011;7615;48.574;13.474;2023-04-07T06:25:15;11.57;;;7.97;;
15035;SDS011;7615;48.574;13.474;2023-04-07T06:27:45;11.97;;;8.07;;
15035;SDS011;7615;48.574;13.474;2023-04-07T06:30:20;13.07;;;7.83;;
15035;SDS011;7615;48.574;13.474;2023-04-07T06:32:49;12.43;;;8.00;;
15035;SDS011;7615;48.574;13.474;2023-04-07T06:35:26;13.27;;;8.77;;
15035;SDS011;7615;48.574;13.474;2023-04-07T06:37:57;12.10;;;8.53;;
15035;SDS011;7615;48.574;13.474;2023-04-07T06:40:39;11.73;;;8.00;;
15035;SDS011;7615;48.574;13.474;2023-04-07T06:43:14;11.53;;;8.37;;
15035;SDS011;7615;48.574;13.474;2023-04-07T06:45:55;12.33;;;8.33;;
15035;SDS011;7615;48.574;13.474;2023-04-07T06:48:30;14.03;;;9.00;;
15035;SDS011;7615;48.574;13.474;2023-04-07T06:51:02;12.70;;;8.60;;
15035;SDS011;7615;48.574;13.474;2023-04-07T06:53:30;14.97;;;9.30;;
15035;SDS011;7615;48.574;13.474;2023-04-07T06:56:08;11.77;;;8.70;;
15035;SDS011;7615;48.574;13.474;2023-04-07T06:58:37;12.50;;;9.30;;
15035;SDS011;7615;48.574;13.474;2023-04-07T07:01:05;12.80;;;8.60;;
15035;SDS011;7615;48.574;13.474;2023-04-07T07:03:37;11.57;;;8.27;;
15035;SDS011;7615;48.574;13.474;2023-04-07T07:06:07;11.60;;;8.63;;
15035;SDS011;7615;48.574;13.474;2023-04-07T07:18:47;12.50;;;8.80;;
15035;SDS011;7615;48.574;13.474;2023-04-07T07:21:42;12.17;;;8.73;;
15035;SDS011;7615;48.574;13.474;2023-04-07T07:24:42;13.93;;;8.37;;
15035;SDS011;7615;48.574;13.474;2023-04-07T07:27:46;12.27;;;8.70;;
15035;SDS011;7615;48.574;13.474;2023-04-07T07:30:45;13.13;;;8.77;;
15035;SDS011;7615;48.574;13.474;2023-04-07T07:37:21;11.50;;;8.17;;
15035;SDS011;7615;48.574;13.474;2023-04-07T07:42:30;12.83;;;9.10;;
15035;SDS011;7615;48.574;13.474;2023-04-07T07:45:06;13.77;;;8.70;;
15035;SDS011;7615;48.574;13.474;2023-04-07T07:47:36;13.93;;;9.07;;
15035;SDS011;7615;48.574;13.474;2023-04-07T07:52:45;19.27;;;10.87;;
15035;SDS011;7615;48.574;13.474;2023-04-07T07:55:13;17.13;;;10.30;;
15035;SDS011;7615;48.574;13.474;2023-04-07T07:57:42;15.33;;;9.53;;
15035;SDS011;7615;48.574;13.474;2023-04-07T08:00:11;17.77;;;9.50;;
15035;SDS011;7615;48.574;13.474;2023-04-07T08:02:54;16.37;;;10.13;;
15035;SDS011;7615;48.574;13.474;2023-04-07T08:05:25;14.90;;;9.47;;
15035;SDS011;7615;48.574;13.474;2023-04-07T08:07:59;12.73;;;9.20;;
15035;SDS011;7615;48.574;13.474;2023-04-07T08:10:28;13.73;;;9.47;;
15035;SDS011;7615;48.574;13.474;2023-04-07T08:12:58;12.37;;;9.40;;
15035;SDS011;7615;48.574;13.474;2023-04-07T08:15:29;13.70;;;9.37;;
15035;SDS011;7615;48.574;13.474;2023-04-07T08:18:00;15.33;;;10.20;;
15035;SDS011;7615;48.574;13.474;2023-04-07T08:20:30;14.97;;;10.00;;
15035;SDS011;7615;48.574;13.474;2023-04-07T08:23:00;14.83;;;9.57;;
15035;SDS011;7615;48.574;13.474;2023-04-07T08:25:29;12.03;;;9.17;;
15035;SDS011;7615;48.574;13.474;2023-04-07T08:27:58;15.13;;;9.33;;
15035;SDS011;7615;48.574;13.474;2023-04-07T08:30:26;15.73;;;9.57;;
15035;SDS011;7615;48.574;13.474;2023-04-07T08:32:54;12.90;;;9.77;;
15035;SDS011;7615;48.574;13.474;2023-04-07T08:35:23;12.30;;;8.70;;
15035;SDS011;7615;48.574;13.474;2023-04-07T08:37:51;12.73;;;8.87;;
15035;SDS011;7615;48.574;13.474;2023-04-07T08:40:24;15.40;;;9.53;;
15035;SDS011;7615;48.574;13.474;2023-04-07T08:43:02;11.77;;;8.70;;
15035;SDS011;7615;48.574;13.474;2023-04-07T08:45:35;16.10;;;8.70;;
15035;SDS011;7615;48.574;13.474;2023-04-07T08:48:09;14.37;;;8.67;;
15035;SDS011;7615;48.574;13.474;2023-04-07T08:50:42;13.63;;;8.43;;
15035;SDS011;7615;48.574;13.474;2023-04-07T08:53:11;13.03;;;8.37;;
15035;SDS011;7615;48.574;13.474;2023-04-07T08:55:55;13.40;;;7.97;;
15035;SDS011;7615;48.574;13.474;2023-04-07T08:58:24;14.97;;;9.13;;
15035;SDS011;7615;48.574;13.474;2023-04-07T09:00:53;12.33;;;8.60;;
15035;SDS011;7615;48.574;13.474;2023-04-07T09:03:20;15.00;;;8.77;;
15035;SDS011;7615;48.574;13.474;2023-04-07T09:05:56;11.43;;;8.03;;
15035;SDS011;7615;48.574;13.474;2023-04-07T09:08:28;13.13;;;8.43;;
15035;SDS011;7615;48.574;13.474;2023-04-07T09:10:57;13.30;;;8.97;;
15035;SDS011;7615;48.574;13.474;2023-04-07T09:13:25;14.63;;;8.63;;
15035;SDS011;7615;48.574;13.474;2023-04-07T09:16:07;15.93;;;10.63;;
15035;SDS011;7615;48.574;13.474;2023-04-07T09:18:34;15.43;;;8.53;;
15035;SDS011;7615;48.574;13.474;2023-04-07T09:21:03;13.47;;;8.60;;
15035;SDS011;7615;48.574;13.474;2023-04-07T09:23:33;14.53;;;8.03;;
15035;SDS011;7615;48.574;13.474;2023-04-07T09:26:19;12.63;;;8.97;;
15035;SDS011;7615;48.574;13.474;2023-04-07T09:28:50;12.73;;;8.27;;
15035;SDS011;7615;48.574;13.474;2023-04-07T09:31:22;14.20;;;8.87;;
15035;SDS011;7615;48.574;13.474;2023-04-07T09:34:22;13.57;;;8.60;;
15035;SDS011;7615;48.574;13.474;2023-04-07T09:36:51;13.07;;;8.53;;
15035;SDS011;7615;48.574;13.474;2023-04-07T09:39:21;15.83;;;8.97;;
15035;SDS011;7615;48.574;13.474;2023-04-07T09:41:50;15.80;;;9.30;;
15035;SDS011;7615;48.574;13.474;2023-04-07T09:44:22;12.23;;;8.33;;
15035;SDS011;7615;48.574;13.474;2023-04-07T09:46:52;14.43;;;8.93;;
15035;SDS011;7615;48.574;13.474;2023-04-07T09:49:22;14.67;;;8.97;;
15035;SDS011;7615;48.574;13.474;2023-04-07T09:51:51;13.70;;;8.93;;
15035;SDS011;7615;48.574;13.474;2023-04-07T09:54:31;13.43;;;9.00;;
15035;SDS011;7615;48.574;13.474;2023-04-07T09:57:02;14.57;;;9.27;;
15035;SDS011;7615;48.574;13.474;2023-04-07T09:59:33;14.73;;;9.50;;
15035;SDS011;7615;48.574;13.474;2023-04-07T10:02:03;16.57;;;9.57;;
15035;SDS011;7615;48.574;13.474;2023-04-07T10:04:32;13.40;;;8.97;;
15035;SDS011;7615;48.574;13.474;2023-04-07T10:07:00;15.00;;;9.17;;
15035;SDS011;7615;48.574;13.474;2023-04-07T10:09:28;14.50;;;8.80;;
15035;SDS011;7615;48.574;13.474;2023-04-07T10:12:09;13.30;;;9.00;;
15035;SDS011;7615;48.574;13.474;2023-04-07T10:14:40;18.87;;;10.07;;
15035;SDS011;7615;48.574;13.474;2023-04-07T10:17:13;15.60;;;9.40;;
15035;SDS011;7615;48.574;13.474;2023-04-07T10:19:49;15.20;;;9.30;;
15035;SDS011;7615;48.574;13.474;2023-04-07T10:22:17;15.43;;;9.23;;
15035;SDS011;7615;48.574;13.474;2023-04-07T10:24:50;17.47;;;9.83;;
15035;SDS011;7615;48.574;13.474;2023-04-07T10:27:26;15.87;;;9.40;;
15035;SDS011;7615;48.574;13.474;2023-04-07T10:30:17;13.83;;;9.10;;
15035;SDS011;7615;48.574;13.474;2023-04-07T10:32:47;14.77;;;9.27;;
15035;SDS011;7615;48.574;13.474;2023-04-07T10:35:15;13.90;;;9.30;;
15035;SDS011;7615;48.574;13.474;2023-04-07T10:40:37;16.07;;;10.07;;
15035;SDS011;7615;48.574;13.474;2023-04-07T10:43:08;13.17;;;9.37;;
15035;SDS011;7615;48.574;13.474;2023-04-07T10:45:53;15.70;;;10.10;;
15035;SDS011;7615;48.574;13.474;2023-04-07T10:48:23;13.33;;;9.20;;
15035;SDS011;7615;48.574;13.474;2023-04-07T10:51:13;12.80;;;9.10;;
15035;SDS011;7615;48.574;13.474;2023-04-07T11:02:47;14.53;;;9.00;;
15035;SDS011;7615;48.574;13.474;2023-04-07T11:05:19;14.47;;;8.73;;
15035;SDS011;7615;48.574;13.474;2023-04-07T11:07:52;14.00;;;9.50;;
15035;SDS011;7615;48.574;13.474;2023-04-07T11:10:32;18.00;;;10.20;;
15035;SDS011;7615;48.574;13.474;2023-04-07T11:55:00;17.73;;;10.30;;
15035;SDS011;7615;48.574;13.474;2023-04-07T11:58:06;13.93;;;10.05;;
15035;SDS011;7615;48.574;13.474;2023-04-07T12:04:22;15.35;;;10.75;;
15035;SDS011;7615;48.574;13.474;2023-04-07T12:07:05;13.48;;;9.68;;
15035;SDS011;7615;48.574;13.474;2023-04-07T12:09:47;15.73;;;10.27;;
15035;SDS011;7615;48.574;13.474;2023-04-07T15:27:32;9.57;;;6.30;;
15035;SDS011;7615;48.574;13.474;2023-04-07T15:30:00;7.65;;;6.20;;
15035;SDS011;7615;48.574;13.474;2023-04-07T15:32:30;9.35;;;5.78;;
15035;SDS011;7615;48.574;13.474;2023-04-07T15:35:06;8.00;;;6.00;;
15035;SDS011;7615;48.574;13.474;2023-04-07T15:38:10;7.80;;;5.78;;
15035;SDS011;7615;48.574;13.474;2023-04-07T15:40:41;7.00;;;5.90;;
15035;SDS011;7615;48.574;13.474;2023-04-07T15:43:12;8.33;;;5.90;;
15035;SDS011;7615;48.574;13.474;2023-04-07T15:45:41;9.03;;;5.57;;
15035;SDS011;7615;48.574;13.474;2023-04-07T15:48:13;8.37;;;5.60;;
15035;SDS011;7615;48.574;13.474;2023-04-07T15:50:40;7.73;;;5.53;;
15035;SDS011;7615;48.574;13.474;2023-04-07T15:53:10;7.43;;;5.87;;
15035;SDS011;7615;48.574;13.474;2023-04-07T15:55:39;7.60;;;5.80;;
15035;SDS011;7615;48.574;13.474;2023-04-07T16:01:13;9.13;;;6.10;;
15035;SDS011;7615;48.574;13.474;2023-04-07T16:03:40;8.93;;;5.83;;
15035;SDS011;7615;48.574;13.474;2023-04-07T16:06:08;10.17;;;6.70;;
15035;SDS011;7615;48.574;13.474;2023-04-07T16:08:37;9.77;;;6.13;;
15035;SDS011;7615;48.574;13.474;2023-04-07T16:11:19;7.77;;;5.83;;
15035;SDS011;7615;48.574;13.474;2023-04-07T16:13:50;8.93;;;6.00;;
15035;SDS011;7615;48.574;13.474;2023-04-07T16:16:18;7.67;;;5.40;;
15035;SDS011;7615;48.574;13.474;2023-04-07T16:18:50;7.70;;;5.63;;
15035;SDS011;7615;48.574;13.474;2023-04-07T16:21:17;8.10;;;5.80;;
15035;SDS011;7615;48.574;13.474;2023-04-07T16:23:44;9.03;;;5.97;;
15035;SDS011;7615;48.574;13.474;2023-04-07T16:26:12;8.47;;;5.87;;
15035;SDS011;7615;48.574;13.474;2023-04-07T16:28:39;8.53;;;5.50;;
15035;SDS011;7615;48.574;13.474;2023-04-07T16:31:09;10.00;;;6.30;;
15035;SDS011;7615;48.574;13.474;2023-04-07T16:33:38;9.10;;;6.33;;
15035;SDS011;7615;48.574;13.474;2023-04-07T16:36:06;9.43;;;6.63;;
15035;SDS011;7615;48.574;13.474;2023-04-07T16:38:33;13.97;;;9.80;;
15035;SDS011;7615;48.574;13.474;2023-04-07T16:41:00;8.67;;;6.30;;
15035;SDS011;7615;48.574;13.474;2023-04-07T16:43:35;9.10;;;6.10;;
15035;SDS011;7615;48.574;13.474;2023-04-07T16:46:02;9.30;;;5.83;;
15035;SDS011;7615;48.574;13.474;2023-04-07T16:48:31;9.43;;;5.90;;
15035;SDS011;7615;48.574;13.474;2023-04-07T16:50:58;8.80;;;6.20;;
15035;SDS011;7615;48.574;13.474;2023-04-07T16:53:26;8.83;;;5.77;;
15035;SDS011;7615;48.574;13.474;2023-04-07T16:55:54;10.63;;;6.27;;
15035;SDS011;7615;48.574;13.474;2023-04-07T16:58:21;9.90;;;6.87;;
15035;SDS011;7615;48.574;13.474;2023-04-07T17:00:48;11.80;;;6.90;;
15035;SDS011;7615;48.574;13.474;2023-04-07T17:03:16;11.50;;;7.60;;
15035;SDS011;7615;48.574;13.474;2023-04-07T17:05:44;10.03;;;7.17;;
15035;SDS011;7615;48.574;13.474;2023-04-07T17:08:13;8.40;;;6.90;;
15035;SDS011;7615;48.574;13.474;2023-04-07T17:10:40;12.43;;;8.57;;
15035;SDS011;7615;48.574;13.474;2023-04-07T17:13:07;11.70;;;7.57;;
15035;SDS011;7615;48.574;13.474;2023-04-07T17:15:35;11.97;;;7.97;;
15035;SDS011;7615;48.574;13.474;2023-04-07T17:18:02;13.60;;;8.00;;
15035;SDS011;7615;48.574;13.474;2023-04-07T17:20:30;10.57;;;7.53;;
15035;SDS011;7615;48.574;13.474;2023-04-07T17:22:58;11.00;;;7.73;;
15035;SDS011;7615;48.574;13.474;2023-04-07T17:25:25;8.73;;;6.80;;
15035;SDS011;7615;48.574;13.474;2023-04-07T17:27:52;9.80;;;6.83;;
15035;SDS011;7615;48.574;13.474;2023-04-07T17:30:23;9.50;;;6.57;;
15035;SDS011;7615;48.574;13.474;2023-04-07T17:32:51;8.63;;;6.53;;
15035;SDS011;7615;48.574;13.474;2023-04-07T17:35:18;9.67;;;7.27;;
15035;SDS011;7615;48.574;13.474;2023-04-07T17:37:46;11.67;;;7.10;;
15035;SDS011;7615;48.574;13.474;2023-04-07T17:40:17;16.20;;;6.60;;
15035;SDS011;7615;48.574;13.474;2023-04-07T17:42:44;10.13;;;6.57;;
15035;SDS011;7615;48.574;13.474;2023-04-07T17:45:12;12.00;;;8.37;;
15035;SDS011;7615;48.574;13.474;2023-04-07T17:47:40;11.70;;;8.40;;
15035;SDS011;7615;48.574;13.474;2023-04-07T17:50:07;12.67;;;8.57;;
15035;SDS011;7615;48.574;13.474;2023-04-07T17:52:35;11.97;;;8.00;;
15035;SDS011;7615;48.574;13.474;2023-04-07T17:55:04;11.30;;;8.87;;
15035;SDS011;7615;48.574;13.474;2023-04-07T17:57:34;12.83;;;8.93;;
15035;SDS011;7615;48.574;13.474;2023-04-07T18:00:01;11.23;;;8.50;;
15035;SDS011;7615;48.574;13.474;2023-04-07T18:02:30;11.67;;;8.37;;
15035;SDS011;7615;48.574;13.474;2023-04-07T18:04:57;11.53;;;8.43;;
15035;SDS011;7615;48.574;13.474;2023-04-07T18:07:25;10.40;;;7.77;;
15035;SDS011;7615;48.574;13.474;2023-04-07T18:09:54;9.60;;;7.20;;
15035;SDS011;7615;48.574;13.474;2023-04-07T18:12:22;13.83;;;8.10;;
15035;SDS011;7615;48.574;13.474;2023-04-07T18:14:51;9.77;;;7.20;;
15035;SDS011;7615;48.574;13.474;2023-04-07T18:17:18;11.30;;;7.33;;
15035;SDS011;7615;48.574;13.474;2023-04-07T18:19:45;10.07;;;6.70;;
15035;SDS011;7615;48.574;13.474;2023-04-07T18:22:12;10.40;;;6.73;;
15035;SDS011;7615;48.574;13.474;2023-04-07T18:24:40;8.83;;;6.70;;
15035;SDS011;7615;48.574;13.474;2023-04-07T18:27:07;8.43;;;6.77;;
15035;SDS011;7615;48.574;13.474;2023-04-07T18:29:34;8.80;;;6.90;;
15035;SDS011;7615;48.574;13.474;2023-04-07T18:32:03;10.37;;;7.70;;
15035;SDS011;7615;48.574;13.474;2023-04-07T18:34:30;11.13;;;7.30;;
15035;SDS011;7615;48.574;13.474;2023-04-07T18:36:58;11.10;;;7.47;;
15035;SDS011;7615;48.574;13.474;2023-04-07T18:39:28;10.13;;;7.33;;
15035;SDS011;7615;48.574;13.474;2023-04-07T18:41:55;11.17;;;7.27;;
15035;SDS011;7615;48.574;13.474;2023-04-07T18:44:26;9.70;;;6.97;;
15035;SDS011;7615;48.574;13.474;2023-04-07T18:46:53;9.93;;;6.97;;
15035;SDS011;7615;48.574;13.474;2023-04-07T18:49:22;12.07;;;7.97;;
15035;SDS011;7615;48.574;13.474;2023-04-07T18:51:52;14.03;;;8.87;;
15035;SDS011;7615;48.574;13.474;2023-04-07T18:54:23;12.18;;;8.98;;
15035;SDS011;7615;48.574;13.474;2023-04-07T18:56:51;13.93;;;9.70;;
15035;SDS011;7615;48.574;13.474;2023-04-07T18:59:18;14.13;;;9.37;;
15035;SDS011;7615;48.574;13.474;2023-04-07T19:01:46;15.57;;;10.03;;
15035;SDS011;7615;48.574;13.474;2023-04-07T19:04:13;15.90;;;9.97;;
15035;SDS011;7615;48.574;13.474;2023-04-07T19:09:42;15.37;;;10.17;;
15035;SDS011;7615;48.574;13.474;2023-04-07T19:12:19;17.90;;;10.90;;
15035;SDS011;7615;48.574;13.474;2023-04-07T19:14:51;14.63;;;9.53;;
15035;SDS011;7615;48.574;13.474;2023-04-07T19:17:46;13.70;;;8.80;;
15035;SDS011;7615;48.574;13.474;2023-04-07T19:20:14;11.17;;;8.13;;
15035;SDS011;7615;48.574;13.474;2023-04-07T19:22:41;16.90;;;11.00;;
15035;SDS011;7615;48.574;13.474;2023-04-07T19:25:10;16.23;;;10.37;;
15035;SDS011;7615;48.574;13.474;2023-04-07T19:27:37;17.63;;;10.60;;
15035;SDS011;7615;48.574;13.474;2023-04-07T19:30:06;14.80;;;8.63;;
15035;SDS011;7615;48.574;13.474;2023-04-07T19:32:34;12.20;;;8.67;;
15035;SDS011;7615;48.574;13.474;2023-04-07T19:35:01;14.00;;;8.37;;